createdAt,value
2023-08-15T00:01:50.963Z,100.00
2023-08-15T00:04:52.580Z,100.00
2023-08-15T00:07:54.179Z,100.00
2023-08-15T00:10:55.803Z,100.00
2023-08-15T00:13:57.946Z,100.00
2023-08-15T00:16:59.652Z,100.00
2023-08-15T00:20:01.290Z,100.00
2023-08-15T00:23:02.973Z,100.00
2023-08-15T00:26:04.624Z,100.00
2023-08-15T00:29:06.321Z,100.00
2023-08-15T00:32:08.002Z,100.00
2023-08-15T00:35:11.594Z,100.00
2023-08-15T00:38:13.310Z,100.00
2023-08-15T00:41:14.936Z,100.00
2023-08-15T00:44:16.583Z,100.00
2023-08-15T00:47:20.177Z,100.00
2023-08-15T00:50:22.155Z,100.00
2023-08-15T00:53:23.950Z,100.00
2023-08-15T00:56:25.803Z,100.00
2023-08-15T00:59:27.484Z,100.00
2023-08-15T01:02:30.004Z,100.00
2023-08-15T01:05:32.794Z,100.00
2023-08-15T01:08:34.731Z,100.00
2023-08-15T01:11:46.056Z,100.00
2023-08-15T01:15:13.277Z,100.00
2023-08-15T01:18:38.434Z,100.00
2023-08-15T01:21:44.954Z,100.00
2023-08-15T01:24:46.969Z,100.00
2023-08-15T01:27:48.555Z,100.00
2023-08-15T01:30:57.565Z,100.00
2023-08-15T01:34:11.603Z,100.00
2023-08-15T01:37:30.479Z,100.00
2023-08-15T01:40:36.351Z,100.00
2023-08-15T01:43:38.906Z,100.00
2023-08-15T01:46:40.716Z,100.00
2023-08-15T01:49:42.392Z,100.00
2023-08-15T01:52:44.001Z,100.00
2023-08-15T01:55:45.639Z,100.00
2023-08-15T01:58:47.385Z,100.00
2023-08-15T02:01:48.975Z,100.00
2023-08-15T02:04:50.546Z,100.00
2023-08-15T02:07:52.193Z,100.00
2023-08-15T02:10:53.886Z,100.00
2023-08-15T02:13:55.709Z,100.00
2023-08-15T02:16:57.368Z,100.00
2023-08-15T02:19:59.031Z,100.00
2023-08-15T02:23:00.668Z,100.00
2023-08-15T02:26:02.336Z,100.00
2023-08-15T02:29:04.506Z,100.00
2023-08-15T02:32:06.118Z,100.00
2023-08-15T02:35:08.251Z,100.00
2023-08-15T02:38:11.131Z,100.00
2023-08-15T02:41:12.791Z,100.00
2023-08-15T02:44:14.446Z,100.00
2023-08-15T02:47:16.100Z,100.00
2023-08-15T02:50:17.797Z,100.00
2023-08-15T02:53:19.449Z,100.00
2023-08-15T02:56:21.095Z,100.00
2023-08-15T02:59:22.752Z,100.00
2023-08-15T03:02:24.804Z,100.00
2023-08-15T03:05:26.465Z,100.00
2023-08-15T03:08:28.143Z,100.00
2023-08-15T03:11:30.689Z,100.00
2023-08-15T03:14:32.447Z,100.00
2023-08-15T03:17:34.513Z,100.00
2023-08-15T03:20:36.329Z,100.00
2023-08-15T03:23:38.536Z,100.00
2023-08-15T03:26:40.357Z,100.00
2023-08-15T03:29:42.040Z,100.00
2023-08-15T03:32:43.821Z,100.00
2023-08-15T03:35:49.834Z,100.00
2023-08-15T03:38:51.436Z,100.00
2023-08-15T03:41:53.048Z,100.00
2023-08-15T03:44:54.670Z,100.00
2023-08-15T03:47:56.452Z,100.00
2023-08-15T03:50:59.750Z,100.00
2023-08-15T03:54:01.402Z,100.00
2023-08-15T03:57:03.049Z,100.00
2023-08-15T04:00:06.387Z,100.00
2023-08-15T04:03:08.055Z,100.00
2023-08-15T04:06:09.728Z,100.00
2023-08-15T04:09:11.348Z,100.00
2023-08-15T04:12:13.050Z,100.00
2023-08-15T04:15:14.650Z,100.00
2023-08-15T04:18:16.293Z,100.00
2023-08-15T04:21:18.311Z,100.00
2023-08-15T04:24:20.776Z,100.00
2023-08-15T04:27:22.903Z,100.00
2023-08-15T04:30:24.879Z,100.00
2023-08-15T04:33:26.550Z,100.00
2023-08-15T04:36:28.205Z,100.00
2023-08-15T04:39:29.827Z,100.00
2023-08-15T04:42:31.410Z,100.00
2023-08-15T04:45:33.265Z,100.00
2023-08-15T04:48:35.030Z,100.00
2023-08-15T04:51:36.674Z,100.00
2023-08-15T04:54:38.318Z,100.00
2023-08-15T04:57:40.381Z,100.00
2023-08-15T05:00:43.201Z,100.00
2023-08-15T05:03:44.866Z,100.00
2023-08-15T05:06:46.472Z,100.00
2023-08-15T05:09:48.577Z,100.00
2023-08-15T05:12:50.309Z,100.00
2023-08-15T05:15:52.013Z,100.00
2023-08-15T05:18:53.627Z,100.00
2023-08-15T05:21:57.616Z,100.00
2023-08-15T05:24:59.247Z,100.00
2023-08-15T05:28:06.936Z,100.00
2023-08-15T05:31:08.626Z,100.00
2023-08-15T05:34:11.552Z,100.00
2023-08-15T05:37:13.262Z,100.00
2023-08-15T05:40:14.921Z,100.00
2023-08-15T05:43:16.592Z,100.00
2023-08-15T05:46:18.288Z,100.00
2023-08-15T05:49:19.922Z,100.00
2023-08-15T05:52:21.745Z,100.00
2023-08-15T05:55:23.331Z,100.00
2023-08-15T05:58:24.925Z,100.00
2023-08-15T06:01:26.557Z,100.00
2023-08-15T06:04:28.248Z,100.00
2023-08-15T06:07:30.002Z,100.00
2023-08-15T06:10:31.671Z,100.00
2023-08-15T06:13:33.280Z,100.00
2023-08-15T06:16:35.046Z,100.00
2023-08-15T06:19:36.842Z,100.00
2023-08-15T06:22:38.425Z,100.00
2023-08-15T06:25:41.586Z,100.00
2023-08-15T06:28:43.217Z,100.00
2023-08-15T06:31:44.845Z,100.00
2023-08-15T06:34:46.502Z,100.00
2023-08-15T06:37:48.122Z,100.00
2023-08-15T06:40:50.249Z,100.00
2023-08-15T06:43:51.889Z,100.00
2023-08-15T06:46:53.596Z,100.00
2023-08-15T06:49:55.186Z,100.00
2023-08-15T06:52:56.806Z,100.00
2023-08-15T06:55:59.139Z,100.00
2023-08-15T06:59:00.745Z,100.00
2023-08-15T07:02:02.444Z,100.00
2023-08-15T07:05:05.465Z,100.00
2023-08-15T07:08:07.671Z,100.00
2023-08-15T07:11:09.286Z,100.00
2023-08-15T07:14:10.938Z,100.00
2023-08-15T07:17:12.825Z,100.00
2023-08-15T07:20:16.996Z,100.00
2023-08-15T07:23:19.292Z,100.00
2023-08-15T07:26:20.913Z,100.00
2023-08-15T07:29:22.587Z,100.00
2023-08-15T07:32:24.493Z,100.00
2023-08-15T07:35:26.542Z,100.00
2023-08-15T07:38:30.771Z,100.00
2023-08-15T07:41:33.086Z,100.00
2023-08-15T07:44:34.738Z,100.00
2023-08-15T07:47:37.557Z,100.00
2023-08-15T07:50:39.264Z,100.00
2023-08-15T07:53:40.945Z,100.00
2023-08-15T07:56:42.567Z,100.00
2023-08-15T07:59:44.193Z,100.00
2023-08-15T08:02:46.368Z,100.00
2023-08-15T08:05:48.279Z,100.00
2023-08-15T08:08:50.561Z,100.00
2023-08-15T08:11:53.366Z,99.36
2023-08-15T08:14:57.809Z,97.49
2023-08-15T08:18:00.181Z,98.39
2023-08-15T08:21:02.625Z,96.69
2023-08-15T08:24:05.126Z,97.93
2023-08-15T08:27:07.016Z,81.52
2023-08-15T08:30:09.373Z,80.16
2023-08-15T08:33:11.172Z,76.26
2023-08-15T08:36:12.754Z,72.70
2023-08-15T08:39:25.602Z,72.48
2023-08-15T08:42:28.903Z,68.37
2023-08-15T08:45:32.177Z,69.45
2023-08-15T08:48:36.467Z,68.96
2023-08-15T08:51:38.901Z,64.76
2023-08-15T08:54:55.703Z,66.46
2023-08-15T08:58:03.776Z,67.99
2023-08-15T09:01:06.135Z,65.00
2023-08-15T09:04:07.930Z,63.01
2023-08-15T09:07:09.530Z,60.74
2023-08-15T09:10:11.214Z,62.94
2023-08-15T09:13:12.819Z,58.65
2023-08-15T09:16:15.030Z,53.65
2023-08-15T09:19:17.855Z,56.57
2023-08-15T09:22:23.644Z,59.75
2023-08-15T09:25:28.490Z,58.60
2023-08-15T09:28:40.220Z,58.92
2023-08-15T09:31:41.969Z,51.92
2023-08-15T09:34:43.696Z,51.21
2023-08-15T09:37:50.104Z,53.56
2023-08-15T09:40:54.371Z,49.90
2023-08-15T09:43:56.086Z,50.60
2023-08-15T09:46:57.939Z,46.34
2023-08-15T09:50:01.352Z,49.56
2023-08-15T09:53:04.837Z,48.49
2023-08-15T09:56:06.452Z,45.52
2023-08-15T09:59:08.128Z,44.80
2023-08-15T10:02:22.123Z,43.90
2023-08-15T10:05:26.506Z,45.31
2023-08-15T10:08:28.752Z,43.06
2023-08-15T10:11:37.140Z,43.30
2023-08-15T10:14:39.851Z,40.79
2023-08-15T10:17:42.288Z,40.89
2023-08-15T10:20:43.981Z,40.59
2023-08-15T10:23:45.613Z,42.64
2023-08-15T10:26:47.367Z,39.35
2023-08-15T10:29:58.227Z,42.41
2023-08-15T10:33:16.293Z,41.16
2023-08-15T10:36:17.860Z,42.38
2023-08-15T10:39:19.450Z,43.49
2023-08-15T10:42:21.070Z,41.63
2023-08-15T10:45:24.395Z,40.86
2023-08-15T10:49:02.617Z,38.18
2023-08-15T10:52:05.807Z,41.58
2023-08-15T10:55:08.410Z,42.07
2023-08-15T10:58:11.880Z,41.52
2023-08-15T11:01:21.296Z,41.10
2023-08-15T11:04:25.717Z,42.06
2023-08-15T11:07:27.698Z,41.60
2023-08-15T11:10:29.288Z,37.27
2023-08-15T11:13:37.206Z,37.51
2023-08-15T11:16:39.108Z,40.17
2023-08-15T11:19:40.839Z,40.27
2023-08-15T11:22:42.453Z,34.21
2023-08-15T11:25:44.167Z,36.20
2023-08-15T11:28:45.799Z,40.51
2023-08-15T11:31:47.900Z,34.60
2023-08-15T11:34:49.579Z,35.21
2023-08-15T11:37:51.533Z,37.72
2023-08-15T11:40:53.173Z,36.73
2023-08-15T11:43:54.833Z,35.38
2023-08-15T11:46:59.081Z,35.62
2023-08-15T11:50:09.663Z,32.87
2023-08-15T11:53:16.749Z,36.52
2023-08-15T11:56:18.388Z,37.88
2023-08-15T11:59:20.426Z,32.06
2023-08-15T12:02:22.041Z,35.86
2023-08-15T12:05:23.734Z,32.29
2023-08-15T12:08:29.621Z,34.32
2023-08-15T12:11:35.536Z,33.96
2023-08-15T12:14:49.182Z,39.25
2023-08-15T12:17:52.355Z,39.62
2023-08-15T12:20:54.244Z,36.35
2023-08-15T12:23:55.881Z,31.62
2023-08-15T12:26:57.481Z,32.21
2023-08-15T12:30:12.748Z,30.07
2023-08-15T12:33:23.806Z,29.16
2023-08-15T12:36:32.920Z,30.12
2023-08-15T12:39:34.532Z,29.69
2023-08-15T12:42:36.138Z,29.40
2023-08-15T12:45:43.018Z,26.82
2023-08-15T12:48:44.634Z,25.94
2023-08-15T12:51:46.253Z,28.07
2023-08-15T12:54:47.838Z,26.41
2023-08-15T12:57:49.473Z,25.14
2023-08-15T13:00:52.084Z,24.46
2023-08-15T13:03:53.984Z,26.67
2023-08-15T13:06:55.721Z,28.76
2023-08-15T13:09:57.385Z,28.03
2023-08-15T13:12:59.022Z,28.41
2023-08-15T13:16:00.684Z,28.82
2023-08-15T13:19:02.427Z,27.47
2023-08-15T13:22:04.045Z,28.91
2023-08-15T13:25:06.067Z,28.55
2023-08-15T13:28:07.784Z,30.11
2023-08-15T13:31:09.443Z,27.63
2023-08-15T13:34:11.347Z,32.33
2023-08-15T13:37:13.014Z,28.51
2023-08-15T13:40:14.660Z,35.45
2023-08-15T13:43:16.367Z,28.73
2023-08-15T13:46:18.564Z,28.62
2023-08-15T13:49:20.209Z,29.83
2023-08-15T13:52:22.064Z,35.17
2023-08-15T13:55:24.632Z,29.93
2023-08-15T13:58:26.638Z,28.75
2023-08-15T14:01:28.439Z,33.18
2023-08-15T14:04:32.653Z,32.63
2023-08-15T14:07:35.375Z,31.07
2023-08-15T14:10:37.429Z,32.01
2023-08-15T14:13:39.153Z,34.19
2023-08-15T14:16:41.238Z,29.00
2023-08-15T14:19:43.015Z,29.08
2023-08-15T14:22:44.650Z,30.73
2023-08-15T14:25:46.356Z,33.72
2023-08-15T14:28:48.011Z,36.46
2023-08-15T14:31:49.608Z,38.63
2023-08-15T14:34:51.199Z,41.42
2023-08-15T14:37:52.770Z,40.88
2023-08-15T14:40:54.729Z,42.26
2023-08-15T14:43:56.370Z,41.39
2023-08-15T14:46:59.349Z,42.92
2023-08-15T14:50:02.197Z,44.65
2023-08-15T14:53:04.043Z,47.45
2023-08-15T14:56:07.396Z,47.79
2023-08-15T14:59:09.044Z,45.37
2023-08-15T15:02:11.473Z,48.58
2023-08-15T15:05:13.975Z,51.42
2023-08-15T15:08:15.696Z,52.38
2023-08-15T15:11:17.285Z,52.80
2023-08-15T15:14:18.877Z,50.04
2023-08-15T15:17:20.511Z,53.16
2023-08-15T15:20:22.205Z,53.78
2023-08-15T15:23:23.993Z,57.82
2023-08-15T15:26:25.690Z,53.28
2023-08-15T15:29:27.522Z,57.49
2023-08-15T15:32:29.203Z,58.70
2023-08-15T15:35:30.830Z,60.11
2023-08-15T15:38:32.576Z,68.06
2023-08-15T15:41:34.269Z,79.15
2023-08-15T15:44:36.075Z,79.58
2023-08-15T15:47:37.748Z,70.72
2023-08-15T15:50:39.403Z,67.77
2023-08-15T15:53:41.080Z,62.96
2023-08-15T15:56:42.931Z,60.62
2023-08-15T15:59:44.617Z,61.91
2023-08-15T16:02:46.774Z,68.41
2023-08-15T16:05:48.437Z,67.79
2023-08-15T16:08:50.136Z,62.45
2023-08-15T16:11:51.737Z,60.77
2023-08-15T16:14:53.338Z,62.66
2023-08-15T16:17:54.945Z,62.77
2023-08-15T16:20:56.618Z,66.67
2023-08-15T16:23:58.220Z,63.25
2023-08-15T16:26:59.857Z,64.09
2023-08-15T16:30:15.018Z,66.16
2023-08-15T16:33:19.260Z,62.41
2023-08-15T16:36:20.915Z,62.66
2023-08-15T16:39:22.559Z,60.42
2023-08-15T16:42:24.455Z,62.09
2023-08-15T16:45:26.257Z,64.08
2023-08-15T16:48:29.063Z,64.68
2023-08-15T16:51:30.720Z,66.64
2023-08-15T16:54:32.369Z,67.01
2023-08-15T16:57:34.007Z,67.85
2023-08-15T17:00:35.639Z,69.15
2023-08-15T17:03:37.267Z,68.32
2023-08-15T17:06:38.904Z,75.32
2023-08-15T17:09:40.807Z,73.62
2023-08-15T17:12:42.551Z,65.39
2023-08-15T17:15:46.670Z,64.74
2023-08-15T17:18:48.384Z,66.83
2023-08-15T17:21:50.025Z,69.81
2023-08-15T17:24:51.692Z,71.88
2023-08-15T17:27:53.646Z,73.53
2023-08-15T17:30:55.886Z,73.27
2023-08-15T17:33:58.956Z,74.51
2023-08-15T17:37:04.706Z,75.27
2023-08-15T17:40:06.900Z,72.92
2023-08-15T17:43:08.738Z,70.50
2023-08-15T17:46:11.764Z,70.97
2023-08-15T17:49:13.583Z,77.23
2023-08-15T17:52:15.271Z,76.53
2023-08-15T17:55:16.986Z,79.57
2023-08-15T17:58:18.642Z,82.26
2023-08-15T18:01:20.372Z,83.89
2023-08-15T18:04:22.115Z,87.04
2023-08-15T18:07:23.709Z,92.56
2023-08-15T18:10:25.458Z,96.48
2023-08-15T18:13:27.316Z,99.85
2023-08-15T18:16:29.535Z,100.00
2023-08-15T18:19:31.183Z,100.00
2023-08-15T18:22:32.895Z,100.00
2023-08-15T18:25:34.496Z,100.00
2023-08-15T18:28:36.208Z,100.00
2023-08-15T18:31:37.937Z,100.00
2023-08-15T18:34:39.627Z,100.00
2023-08-15T18:37:45.392Z,99.62
2023-08-15T18:40:47.454Z,97.83
2023-08-15T18:43:49.129Z,95.49
2023-08-15T18:46:51.732Z,96.92
2023-08-15T18:49:53.570Z,95.65
2023-08-15T18:52:55.161Z,93.38
2023-08-15T18:55:56.799Z,94.14
2023-08-15T18:58:58.447Z,100.00
2023-08-15T19:02:00.112Z,100.00
2023-08-15T19:05:02.297Z,97.97
2023-08-15T19:08:04.047Z,99.38
2023-08-15T19:11:05.773Z,100.00
2023-08-15T19:14:07.595Z,100.00
2023-08-15T19:17:09.180Z,100.00
2023-08-15T19:20:12.003Z,100.00
2023-08-15T19:23:13.840Z,100.00
2023-08-15T19:26:15.482Z,100.00
2023-08-15T19:29:17.378Z,100.00
2023-08-15T19:32:19.162Z,100.00
2023-08-15T19:35:26.518Z,100.00
2023-08-15T19:38:28.170Z,100.00
2023-08-15T19:41:29.814Z,100.00
2023-08-15T19:44:31.496Z,100.00
2023-08-15T19:47:34.411Z,100.00
2023-08-15T19:50:36.111Z,100.00
2023-08-15T19:53:37.749Z,100.00
2023-08-15T19:56:39.405Z,100.00
2023-08-15T19:59:41.032Z,100.00
2023-08-15T20:02:42.754Z,100.00
2023-08-15T20:05:44.463Z,100.00
2023-08-15T20:08:46.064Z,100.00
2023-08-15T20:11:48.567Z,100.00
2023-08-15T20:14:50.182Z,100.00
2023-08-15T20:17:51.819Z,100.00
2023-08-15T20:20:55.057Z,100.00
2023-08-15T20:23:58.131Z,100.00
2023-08-15T20:26:59.774Z,100.00
2023-08-15T20:30:01.528Z,100.00
2023-08-15T20:33:03.622Z,100.00
2023-08-15T20:36:05.529Z,100.00
2023-08-15T20:39:07.127Z,100.00
2023-08-15T20:42:11.673Z,100.00
2023-08-15T20:45:14.863Z,100.00
2023-08-15T20:51:18.667Z,100.00
2023-08-15T20:54:20.950Z,100.00
2023-08-15T20:57:22.680Z,100.00
2023-08-15T21:00:24.370Z,100.00
2023-08-15T21:03:26.017Z,100.00
2023-08-15T21:06:28.217Z,100.00
2023-08-15T21:09:30.657Z,100.00
2023-08-15T21:12:32.247Z,100.00
2023-08-15T21:15:33.985Z,100.00
2023-08-15T21:18:35.948Z,100.00
2023-08-15T21:21:37.632Z,100.00
2023-08-15T21:24:40.378Z,100.00
2023-08-15T21:27:42.032Z,100.00
2023-08-15T21:30:44.089Z,100.00
2023-08-15T21:33:45.765Z,100.00
2023-08-15T21:36:48.615Z,100.00
2023-08-15T21:39:50.288Z,100.00
2023-08-15T21:42:51.974Z,100.00
2023-08-15T21:45:53.632Z,100.00
2023-08-15T21:48:55.284Z,100.00
2023-08-15T21:51:57.145Z,100.00
2023-08-15T21:54:58.862Z,100.00
2023-08-15T21:58:00.584Z,100.00
2023-08-15T22:01:03.383Z,100.00
2023-08-15T22:04:05.169Z,100.00
2023-08-15T22:07:06.764Z,100.00
2023-08-15T22:10:08.888Z,100.00
2023-08-15T22:13:10.461Z,100.00
2023-08-15T22:16:12.159Z,100.00
2023-08-15T22:19:13.892Z,100.00
2023-08-15T22:22:16.453Z,100.00
2023-08-15T22:25:18.928Z,100.00
2023-08-15T22:28:20.521Z,100.00
2023-08-15T22:31:22.235Z,100.00
2023-08-15T22:34:23.907Z,100.00
2023-08-15T22:37:25.704Z,100.00
2023-08-15T22:40:27.403Z,100.00
2023-08-15T22:43:29.365Z,100.00
2023-08-15T22:46:30.991Z,100.00
2023-08-15T22:49:32.598Z,100.00
2023-08-15T22:52:34.246Z,100.00
2023-08-15T22:55:35.943Z,100.00
2023-08-15T22:58:37.682Z,100.00
2023-08-15T23:01:40.792Z,100.00
2023-08-15T23:04:42.660Z,100.00
2023-08-15T23:07:44.411Z,100.00
2023-08-15T23:10:53.355Z,100.00
2023-08-15T23:13:54.986Z,100.00
2023-08-15T23:16:56.568Z,100.00
2023-08-15T23:19:58.184Z,100.00
2023-08-15T23:22:59.850Z,100.00
2023-08-15T23:26:01.495Z,100.00
2023-08-15T23:29:04.567Z,100.00
2023-08-15T23:32:06.764Z,100.00
2023-08-15T23:35:08.950Z,100.00
2023-08-15T23:38:10.578Z,100.00
2023-08-15T23:41:12.383Z,100.00
2023-08-15T23:44:14.126Z,100.00
2023-08-15T23:47:15.783Z,100.00
2023-08-15T23:50:17.504Z,100.00
2023-08-15T23:53:19.167Z,100.00
2023-08-15T23:56:20.750Z,100.00
2023-08-15T23:59:22.404Z,100.00
